createdAt,value
2023-03-08T08:07:35.583Z,65.58
2023-03-08T08:10:03.225Z,66.14
2023-03-08T08:12:30.598Z,64.34
2023-03-08T08:14:59.871Z,64.65
2023-03-08T08:17:27.254Z,65.56
2023-03-08T08:19:54.554Z,65.18
2023-03-08T08:22:22.033Z,64.41
2023-03-08T08:24:49.384Z,63.85
2023-03-08T08:27:16.658Z,64.17
2023-03-08T08:29:46.242Z,64.07
2023-03-08T08:32:13.716Z,63.76
2023-03-08T08:34:41.038Z,64.11
2023-03-08T08:37:08.386Z,63.66
2023-03-08T08:39:35.813Z,62.96
2023-03-08T08:42:03.648Z,62.75
2023-03-08T08:44:30.991Z,63.37
2023-03-08T08:46:58.321Z,62.98
2023-03-08T08:49:25.676Z,63.56
2023-03-08T08:51:53.406Z,63.63
2023-03-08T08:54:20.796Z,63.94
2023-03-08T08:56:48.179Z,63.55
2023-03-08T08:59:16.417Z,62.79
2023-03-08T09:01:44.089Z,62.99
2023-03-08T09:04:16.902Z,62.48
2023-03-08T09:06:44.546Z,62.16
2023-03-08T09:09:11.955Z,62.05
2023-03-08T09:11:53.378Z,61.66
2023-03-08T09:14:21.845Z,61.93
2023-03-08T09:16:49.348Z,62.82
2023-03-08T09:19:16.741Z,62.36
2023-03-08T09:21:44.094Z,62.73
2023-03-08T09:24:13.278Z,62.37
2023-03-08T09:26:40.577Z,62.48
2023-03-08T09:29:08.122Z,62.31
2023-03-08T09:31:38.588Z,62.12
2023-03-08T09:34:09.340Z,62.31
2023-03-08T09:36:40.921Z,62.13
2023-03-08T09:39:13.086Z,62.57
2023-03-08T09:42:03.769Z,62.36
2023-03-08T09:45:02.154Z,63.14
2023-03-08T09:47:46.713Z,62.84
2023-03-08T09:50:51.063Z,62.94
2023-03-08T09:53:46.761Z,62.93
2023-03-08T09:56:42.190Z,63.22
2023-03-08T09:59:43.320Z,63.06
2023-03-08T10:02:46.494Z,63.80
2023-03-08T10:05:44.609Z,63.47
2023-03-08T10:08:31.449Z,63.64
2023-03-08T10:11:09.149Z,63.68
2023-03-08T10:13:43.461Z,64.07
2023-03-08T10:16:35.474Z,64.14
2023-03-08T10:20:02.313Z,64.27
2023-03-08T10:22:42.325Z,63.46
2023-03-08T10:25:34.107Z,63.94
2023-03-08T10:28:11.474Z,63.95
2023-03-08T10:31:04.357Z,63.90
2023-03-08T10:33:36.667Z,64.28
2023-03-08T10:36:25.480Z,64.43
2023-03-08T10:39:11.413Z,64.69
2023-03-08T10:41:51.413Z,68.64
2023-03-08T10:44:52.714Z,68.83
2023-03-08T10:47:33.573Z,66.28
2023-03-08T10:50:18.019Z,68.97
2023-03-08T10:52:51.240Z,67.92
2023-03-08T10:55:32.030Z,68.16
2023-03-08T10:58:03.051Z,68.60
2023-03-08T11:00:42.321Z,68.26
2023-03-08T11:03:21.453Z,67.93
2023-03-08T11:05:58.771Z,67.49
2023-03-08T11:08:53.683Z,67.20
2023-03-08T11:11:21.567Z,66.14
2023-03-08T11:13:52.464Z,66.25
2023-03-08T11:16:53.669Z,66.11
2023-03-08T11:20:10.723Z,65.62
2023-03-08T11:23:16.960Z,64.79
2023-03-08T11:27:00.066Z,64.66
2023-03-08T11:30:13.100Z,64.20
2023-03-08T11:33:39.580Z,63.70
2023-03-08T11:36:42.137Z,63.44
2023-03-08T11:39:45.742Z,62.82
2023-03-08T11:43:31.340Z,62.24
2023-03-08T11:46:21.953Z,62.22
2023-03-08T11:49:19.856Z,61.94
2023-03-08T11:52:36.809Z,61.52
2023-03-08T11:56:27.783Z,61.25
2023-03-08T11:59:29.651Z,59.93
2023-03-08T12:02:07.806Z,59.70
2023-03-08T12:04:53.938Z,59.45
2023-03-08T12:08:01.608Z,59.35
2023-03-08T12:10:58.837Z,57.90
2023-03-08T12:13:44.795Z,57.95
2023-03-08T12:17:18.269Z,57.97
2023-03-08T12:19:52.012Z,57.19
2023-03-08T12:23:00.990Z,56.76
2023-03-08T12:25:39.373Z,56.88
2023-03-08T12:28:48.700Z,56.80
2023-03-08T12:31:41.454Z,56.40
2023-03-08T12:34:35.941Z,56.10
2023-03-08T12:37:04.267Z,55.80
2023-03-08T12:39:37.049Z,55.16
2023-03-08T12:42:10.147Z,54.98
2023-03-08T12:44:39.257Z,54.85
2023-03-08T12:47:13.237Z,54.75
2023-03-08T12:49:56.614Z,54.78
2023-03-08T12:52:35.257Z,54.88
2023-03-08T12:55:17.760Z,54.87
2023-03-08T12:57:55.628Z,54.48
2023-03-08T13:00:35.642Z,54.49
2023-03-08T13:03:14.742Z,54.68
2023-03-08T13:05:45.627Z,54.71
2023-03-08T13:08:18.870Z,53.82
2023-03-08T13:11:13.783Z,53.65
2023-03-08T13:14:01.506Z,53.45
2023-03-08T13:16:38.779Z,53.35
2023-03-08T13:19:15.340Z,53.16
2023-03-08T13:22:09.054Z,52.98
2023-03-08T13:25:01.691Z,52.21
2023-03-08T13:27:58.339Z,51.72
2023-03-08T13:30:47.007Z,51.32
2023-03-08T13:33:33.117Z,51.62
2023-03-08T13:36:21.920Z,51.37
2023-03-08T13:39:23.683Z,51.50
2023-03-08T13:41:51.280Z,52.56
2023-03-08T13:44:28.060Z,52.21
2023-03-08T13:47:02.236Z,51.99
2023-03-08T13:49:38.005Z,51.72
2023-03-08T13:52:30.138Z,51.55
2023-03-08T13:55:03.420Z,51.90
2023-03-08T13:57:37.249Z,51.88
2023-03-08T14:00:34.292Z,51.76
2023-03-08T14:03:07.497Z,51.57
2023-03-08T14:05:43.837Z,51.59
2023-03-08T14:08:26.327Z,51.41
2023-03-08T14:11:07.110Z,51.36
2023-03-08T14:13:38.805Z,51.18
2023-03-08T14:16:09.274Z,50.70
2023-03-08T14:18:43.694Z,50.22
2023-03-08T14:21:30.640Z,49.97
2023-03-08T14:24:06.925Z,49.95
2023-03-08T14:26:41.859Z,49.57
2023-03-08T14:29:24.244Z,48.86
2023-03-08T14:32:10.556Z,48.87
2023-03-08T14:34:50.510Z,48.75
2023-03-08T14:37:31.289Z,49.05
2023-03-08T14:40:35.858Z,49.47
2023-03-08T14:43:17.244Z,49.44
2023-03-08T14:46:09.134Z,51.72
2023-03-08T14:48:38.618Z,53.36
2023-03-08T14:51:43.493Z,56.30
2023-03-08T14:54:36.483Z,57.92
2023-03-08T14:57:29.276Z,57.14
2023-03-08T15:00:16.237Z,56.99
2023-03-08T15:02:44.318Z,56.71
2023-03-08T15:05:28.880Z,55.76
2023-03-08T15:07:59.314Z,55.07
2023-03-08T15:10:39.165Z,53.78
2023-03-08T15:13:23.130Z,54.33
2023-03-08T15:15:50.924Z,53.10
2023-03-08T15:18:18.601Z,52.98
2023-03-08T15:20:50.322Z,53.24
2023-03-08T15:23:32.963Z,53.07
2023-03-08T15:26:00.355Z,52.94
2023-03-08T15:28:27.784Z,53.07
2023-03-08T15:30:55.168Z,53.63
2023-03-08T15:33:23.816Z,53.88
2023-03-08T15:35:51.864Z,54.87
2023-03-08T15:38:21.472Z,55.89
2023-03-08T15:40:49.058Z,57.39
2023-03-08T15:43:16.397Z,57.13
2023-03-08T15:45:43.736Z,57.00
2023-03-08T15:48:19.864Z,57.23
2023-03-08T15:50:47.608Z,56.72
2023-03-08T15:53:23.236Z,56.29
2023-03-08T15:55:57.105Z,58.35
2023-03-08T15:58:24.417Z,61.23
2023-03-08T16:00:52.235Z,61.83
2023-03-08T16:03:25.961Z,63.92
2023-03-08T16:05:53.475Z,64.92
2023-03-08T16:08:27.987Z,67.46
2023-03-08T16:10:55.998Z,68.37
2023-03-08T16:13:23.359Z,69.20
2023-03-08T16:15:50.802Z,69.78
2023-03-08T16:18:18.236Z,70.97
2023-03-08T16:20:46.235Z,70.95
2023-03-08T16:23:14.074Z,71.67
2023-03-08T16:25:43.248Z,72.32
2023-03-08T16:28:11.187Z,72.79
2023-03-08T16:30:40.970Z,72.70
2023-03-08T16:33:08.345Z,73.43
2023-03-08T16:35:35.686Z,72.38
2023-03-08T16:38:03.853Z,73.35
2023-03-08T16:40:33.040Z,74.22
2023-03-08T16:43:00.415Z,73.78
2023-03-08T16:45:27.724Z,73.66
2023-03-08T16:47:55.044Z,75.12
2023-03-08T16:50:22.476Z,74.97
2023-03-08T16:52:55.169Z,76.30
2023-03-08T16:55:23.260Z,75.41
2023-03-08T16:57:51.401Z,76.02
2023-03-08T17:00:20.030Z,76.12
2023-03-08T17:02:47.437Z,75.75
2023-03-08T17:05:14.769Z,75.88
2023-03-08T17:07:42.130Z,75.83
2023-03-08T17:10:10.847Z,76.78
2023-03-08T17:12:38.226Z,76.88
2023-03-08T17:15:06.714Z,77.72
2023-03-08T17:17:34.039Z,78.26
2023-03-08T17:20:01.472Z,77.11
2023-03-08T17:22:28.883Z,75.79
2023-03-08T17:24:56.992Z,78.05
2023-03-08T17:27:24.802Z,77.60
2023-03-08T17:29:52.755Z,75.89
2023-03-08T17:32:20.572Z,76.23
2023-03-08T17:34:48.015Z,76.41
2023-03-08T17:37:15.804Z,76.03
2023-03-08T17:39:43.113Z,77.35
2023-03-08T17:42:10.444Z,77.43
2023-03-08T17:44:38.187Z,77.44
2023-03-08T17:47:05.733Z,76.60
2023-03-08T17:49:34.156Z,76.50
2023-03-08T17:52:01.455Z,76.24
2023-03-08T17:54:28.786Z,76.44
2023-03-08T17:56:56.138Z,77.34
2023-03-08T17:59:23.485Z,76.42
2023-03-08T18:01:50.821Z,76.44
2023-03-08T18:04:19.071Z,76.66
2023-03-08T18:06:46.478Z,77.45
2023-03-08T18:09:16.470Z,78.53
2023-03-08T18:11:44.017Z,78.42
2023-03-08T18:14:15.781Z,74.66
2023-03-08T18:16:44.836Z,73.61
2023-03-08T18:19:13.544Z,69.23
2023-03-08T18:21:41.568Z,69.94
2023-03-08T18:24:12.876Z,68.08
2023-03-08T18:26:40.794Z,69.20
2023-03-08T18:29:08.163Z,68.55
2023-03-08T18:31:37.200Z,66.65
